Time;durP1;ratioP1;P1;durP2;ratioP2;P2;SDS_P1;SDS_P2;PMS_P1;PMS_P2;Temp;Humidity;BMP_temperature;BMP_pressure;BME280_temperature;BME280_humidity;BME280_pressure;Samples;Min_cycle;Max_cycle;Signal;HPM_P1;HPM_P2
2021/04/16 00:02:17;;;;;;;25.50;17.07;;;;;;;7.67;82.67;100282.12;1835480;77;21279;-59
2021/04/16 00:05:25;;;;;;;23.95;16.70;;;;;;;7.69;82.69;100280.09;1825502;76;21236;-59
2021/04/16 00:08:38;;;;;;;25.70;17.32;;;;;;;7.64;82.73;100280.05;1830967;76;21763;-58
2021/04/16 00:11:44;;;;;;;23.90;16.60;;;;;;;7.65;82.97;100285.00;1823996;76;21221;-58
2021/04/16 00:14:53;;;;;;;27.80;18.65;;;;;;;7.67;83.21;100289.80;1824109;77;21217;-58
2021/04/16 00:17:59;;;;;;;29.20;17.77;;;;;;;7.72;83.41;100285.23;1824999;76;21371;-59
2021/04/16 00:21:07;;;;;;;26.62;16.93;;;;;;;7.80;83.70;100281.20;1825728;77;21188;-58
2021/04/16 00:24:17;;;;;;;26.77;17.92;;;;;;;7.88;83.86;100280.72;1830043;76;21347;-58
2021/04/16 00:27:22;;;;;;;28.92;18.30;;;;;;;7.98;83.96;100280.10;1829292;76;21200;-58
2021/04/16 00:30:33;;;;;;;31.15;18.75;;;;;;;8.05;83.94;100274.37;1824293;77;22149;-59
2021/04/16 00:33:38;;;;;;;28.92;18.30;;;;;;;8.12;84.06;100271.84;1819820;76;21508;-58
2021/04/16 00:36:45;;;;;;;29.90;18.45;;;;;;;8.20;84.21;100283.63;1815761;76;21240;-58
2021/04/16 00:39:51;;;;;;;28.17;18.85;;;;;;;8.30;84.28;100283.53;1822214;76;22986;-58
2021/04/16 00:43:03;;;;;;;30.35;19.35;;;;;;;8.34;84.07;100284.40;1826255;76;21256;-58
2021/04/16 00:46:31;;;;;;;30.43;18.73;;;;;;;8.38;84.08;100284.94;1819482;76;21366;-58
2021/04/16 00:49:56;;;;;;;32.80;19.73;;;;;;;8.47;84.30;100277.11;1827659;77;22009;-58
2021/04/16 00:53:02;;;;;;;32.00;19.62;;;;;;;8.55;84.14;100276.65;1804719;76;21985;-57
2021/04/16 00:56:09;;;;;;;34.53;20.92;;;;;;;8.60;84.11;100281.60;1799533;76;21191;-59
2021/04/16 00:59:17;;;;;;;36.42;21.02;;;;;;;8.64;84.03;100272.91;1821541;77;21190;-59
2021/04/16 01:02:22;;;;;;;41.00;21.20;;;;;;;8.69;84.09;100277.87;1801591;76;21286;-59
2021/04/16 01:05:28;;;;;;;38.13;19.60;;;;;;;8.76;84.02;100280.29;1797143;76;21263;-59
2021/04/16 01:08:35;;;;;;;38.00;21.65;;;;;;;8.82;83.92;100279.61;1813316;76;21248;-59
2021/04/16 01:11:40;;;;;;;37.98;20.25;;;;;;;8.87;83.81;100275.38;1814404;77;21251;-59
2021/04/16 01:14:50;;;;;;;35.60;19.90;;;;;;;8.95;83.71;100276.77;1818012;76;21397;-59
2021/04/16 01:17:55;;;;;;;35.25;20.10;;;;;;;8.99;83.52;100269.92;1828150;77;22042;-59
2021/04/16 01:21:05;;;;;;;34.03;20.85;;;;;;;9.04;83.34;100272.14;1821459;76;21221;-58
2021/04/16 01:24:37;;;;;;;34.95;19.50;;;;;;;9.07;83.17;100277.27;1807551;76;21291;-58
2021/04/16 01:27:45;;;;;;;32.93;20.35;;;;;;;9.11;83.03;100269.09;1810639;76;21353;-58
2021/04/16 01:31:10;;;;;;;35.03;20.20;;;;;;;9.16;82.94;100270.81;1800193;76;21224;-58
2021/04/16 01:34:16;;;;;;;35.15;20.70;;;;;;;9.18;82.72;100269.27;1771555;77;21369;-59
2021/04/16 01:37:24;;;;;;;41.33;21.27;;;;;;;9.16;82.60;100270.81;1805205;77;21215;-59
2021/04/16 01:40:31;;;;;;;32.38;20.40;;;;;;;9.18;82.57;100269.27;1823287;76;21212;-58
2021/04/16 01:43:44;;;;;;;30.43;19.95;;;;;;;9.20;82.64;100262.61;1800393;76;21271;-58
2021/04/16 01:46:59;;;;;;;33.75;20.82;;;;;;;9.24;82.65;100263.13;1817519;76;21446;-58
2021/04/16 01:50:07;;;;;;;31.97;18.77;;;;;;;9.28;82.63;100263.11;1835315;76;21931;-57
2021/04/16 01:53:18;;;;;;;28.42;19.32;;;;;;;9.30;82.55;100255.61;1832222;77;21326;-58
2021/04/16 01:56:25;;;;;;;28.00;18.32;;;;;;;9.34;82.52;100259.72;1829966;77;21385;-57
2021/04/16 01:59:35;;;;;;;29.00;18.35;;;;;;;9.32;82.33;100258.53;1828517;76;21354;-58
2021/04/16 02:02:42;;;;;;;24.75;16.97;;;;;;;9.35;82.39;100257.32;1827161;76;21731;-58
2021/04/16 02:05:48;;;;;;;22.87;16.73;;;;;;;9.35;82.39;100261.42;1825033;76;21334;-58
2021/04/16 02:08:54;;;;;;;26.37;17.05;;;;;;;9.35;82.17;100261.42;1820943;76;21370;-58
2021/04/16 02:12:00;;;;;;;24.72;17.27;;;;;;;9.34;82.16;100260.55;1827682;76;21347;-58
2021/04/16 02:15:06;;;;;;;22.87;16.57;;;;;;;9.32;82.11;100258.53;1823682;76;21327;-59
2021/04/16 02:18:13;;;;;;;23.42;16.87;;;;;;;9.32;82.30;100253.06;1829988;76;21228;-58
2021/04/16 02:21:18;;;;;;;27.48;17.10;;;;;;;9.35;82.36;100259.55;1830229;77;21378;-58
2021/04/16 02:24:23;;;;;;;24.37;17.92;;;;;;;9.38;82.39;100266.03;1822903;77;21279;-59
2021/04/16 02:27:31;;;;;;;24.02;17.70;;;;;;;9.41;82.33;100258.86;1819563;77;21436;-58
2021/04/16 02:30:41;;;;;;;24.12;16.95;;;;;;;9.43;82.34;100261.42;1831906;77;21259;-59
2021/04/16 02:33:49;;;;;;;28.47;17.23;;;;;;;9.40;82.04;100266.73;1832099;76;21381;-59
2021/04/16 02:36:57;;;;;;;25.88;17.90;;;;;;;9.34;81.96;100264.66;1832652;76;21287;-59
2021/04/16 02:40:04;;;;;;;22.65;16.95;;;;;;;9.27;81.94;100265.52;1821833;76;21342;-60
2021/04/16 02:43:10;;;;;;;26.77;18.57;;;;;;;9.25;82.23;100266.19;1821254;77;21369;-58
2021/04/16 02:46:18;;;;;;;26.12;17.50;;;;;;;9.30;82.58;100271.50;1832299;76;21721;-58
2021/04/16 02:49:27;;;;;;;25.25;17.77;;;;;;;9.31;82.55;100271.83;1827425;76;21812;-59
2021/04/16 02:52:34;;;;;;;24.23;17.65;;;;;;;9.33;82.53;100273.88;1763460;80;21204;-59
2021/04/16 02:55:41;;;;;;;24.02;17.23;;;;;;;9.35;82.67;100269.11;1765353;76;21717;-58
2021/04/16 02:58:46;;;;;;;22.65;16.40;;;;;;;9.41;82.90;100271.66;1819564;77;21350;-58
2021/04/16 03:01:52;;;;;;;22.60;16.45;;;;;;;9.45;82.90;100273.88;1803827;77;21311;-59
2021/04/16 03:04:58;;;;;;;21.52;15.53;;;;;;;9.45;82.71;100275.23;1822211;76;21362;-59
2021/04/16 03:08:05;;;;;;;20.95;14.85;;;;;;;9.47;82.65;100278.66;1832186;76;21221;-59
2021/04/16 03:11:12;;;;;;;19.70;13.83;;;;;;;9.47;82.59;100283.26;1818112;76;21188;-59
2021/04/16 03:14:18;;;;;;;20.72;15.45;;;;;;;9.51;82.76;100280.55;1825662;77;21342;-59
2021/04/16 03:17:24;;;;;;;22.15;15.45;;;;;;;9.55;82.78;100287.36;1827978;77;21239;-59
2021/04/16 03:20:30;;;;;;;15.30;12.80;;;;;;;9.57;82.64;100290.28;1829119;77;21303;-60
2021/04/16 03:23:36;;;;;;;18.05;14.07;;;;;;;9.59;82.47;100295.57;1826302;76;21221;-61
2021/04/16 03:26:43;;;;;;;17.32;12.73;;;;;;;9.58;82.31;100291.97;1827549;77;21879;-59
2021/04/16 03:29:48;;;;;;;17.60;14.25;;;;;;;9.58;82.20;100293.34;1815927;77;21362;-58
2021/04/16 03:32:55;;;;;;;18.57;14.20;;;;;;;9.58;82.17;100292.48;1825419;76;21481;-59
2021/04/16 03:36:01;;;;;;;18.17;14.50;;;;;;;9.60;82.14;100297.27;1824900;77;21390;-59
2021/04/16 03:39:07;;;;;;;18.15;13.43;;;;;;;9.61;82.13;100298.45;1826818;76;21405;-58
2021/04/16 03:42:13;;;;;;;15.32;11.38;;;;;;;9.62;82.02;100296.09;1816172;76;21252;-58
2021/04/16 03:45:19;;;;;;;17.23;13.40;;;;;;;9.64;82.00;100295.91;1818380;77;21796;-59
2021/04/16 03:48:25;;;;;;;16.17;12.45;;;;;;;9.66;81.91;100303.41;1813989;77;21889;-58
2021/04/16 03:51:31;;;;;;;17.82;13.28;;;;;;;9.66;81.87;100308.37;1795948;77;21286;-60
2021/04/16 03:54:39;;;;;;;16.00;12.73;;;;;;;9.66;81.80;100308.37;1819707;77;21347;-58
2021/04/16 03:57:45;;;;;;;15.00;12.23;;;;;;;9.63;81.71;100312.81;1822345;77;21367;-59
2021/04/16 04:00:50;;;;;;;15.83;12.53;;;;;;;9.60;81.65;100310.93;1767494;79;21240;-58
2021/04/16 04:03:56;;;;;;;16.00;12.80;;;;;;;9.53;81.70;100316.76;1804932;77;21364;-59
2021/04/16 04:07:02;;;;;;;16.48;12.80;;;;;;;9.50;81.72;100327.50;1775029;77;21281;-60
2021/04/16 04:10:08;;;;;;;15.03;11.50;;;;;;;9.50;81.93;100326.13;1768905;80;21370;-58
2021/04/16 04:13:17;;;;;;;15.68;12.33;;;;;;;9.50;81.88;100327.50;1822264;77;21212;-59
2021/04/16 04:16:24;;;;;;;15.83;12.07;;;;;;;9.43;81.78;100333.81;1829175;77;21177;-58
2021/04/16 04:19:31;;;;;;;17.00;11.85;;;;;;;9.44;82.08;100335.52;1769528;78;21224;-59
2021/04/16 04:22:39;;;;;;;16.60;12.70;;;;;;;9.50;82.14;100330.77;1823072;77;21370;-58
2021/04/16 04:25:46;;;;;;;17.00;12.20;;;;;;;9.59;82.23;100334.69;1818044;77;21271;-58
2021/04/16 04:28:52;;;;;;;16.75;12.47;;;;;;;9.74;82.23;100335.70;1808030;78;21345;-59
2021/04/16 04:31:57;;;;;;;16.23;11.85;;;;;;;9.86;81.81;100341.14;1805380;77;21188;-57
2021/04/16 04:35:04;;;;;;;14.33;11.15;;;;;;;9.82;81.25;100348.00;1823465;77;21334;-58
2021/04/16 04:38:10;;;;;;;15.63;12.35;;;;;;;9.75;81.17;100353.80;1833216;77;21756;-59
2021/04/16 04:41:17;;;;;;;15.75;12.30;;;;;;;9.69;81.04;100349.02;1828253;77;21737;-58
2021/04/16 04:44:23;;;;;;;19.00;12.50;;;;;;;9.65;81.05;100350.91;1821349;77;21906;-58
2021/04/16 04:47:30;;;;;;;17.35;12.88;;;;;;;9.62;81.07;100360.31;1824796;77;21429;-59
2021/04/16 04:50:36;;;;;;;17.20;12.98;;;;;;;9.57;81.14;100359.96;1827100;76;21334;-59
2021/04/16 04:53:43;;;;;;;20.52;14.87;;;;;;;9.56;81.40;100364.23;1823430;77;21193;-59
2021/04/16 04:56:50;;;;;;;26.52;15.58;;;;;;;9.53;81.56;100356.38;1832042;76;21417;-58
2021/04/16 04:59:57;;;;;;;21.80;15.80;;;;;;;9.48;81.72;100355.50;1827692;76;21574;-58
2021/04/16 05:03:02;;;;;;;27.62;16.77;;;;;;;9.48;82.04;100354.12;1828262;76;21365;-60
2021/04/16 05:06:12;;;;;;;25.48;16.48;;;;;;;9.55;82.31;100351.07;1833010;77;21401;-59
2021/04/16 05:09:21;;;;;;;26.68;17.57;;;;;;;9.65;82.41;100353.64;1801808;76;21459;-58
2021/04/16 05:12:29;;;;;;;26.17;18.57;;;;;;;9.81;82.46;100355.87;1798889;76;21236;-57
2021/04/16 05:15:37;;;;;;;24.65;15.95;;;;;;;9.93;82.26;100354.48;1822370;77;21188;-58
2021/04/16 05:18:46;;;;;;;23.38;15.90;;;;;;;10.08;82.16;100348.70;1827876;77;21419;-58
2021/04/16 05:21:56;;;;;;;23.50;16.52;;;;;;;10.23;82.07;100356.52;1823773;77;21248;-58
2021/04/16 05:25:03;;;;;;;24.27;15.60;;;;;;;10.32;81.78;100354.09;1852986;75;21398;-58
2021/04/16 05:28:09;;;;;;;23.47;16.20;;;;;;;10.38;81.45;100356.16;1837223;75;21740;-59
2021/04/16 05:31:15;;;;;;;25.12;16.23;;;;;;;10.41;81.29;100358.54;1845016;75;21220;-58
2021/04/16 05:34:22;;;;;;;24.82;16.73;;;;;;;10.47;81.04;100355.59;1839908;76;21247;-58
2021/04/16 05:37:29;;;;;;;25.17;17.95;;;;;;;10.47;80.83;100350.98;1830416;76;21224;-58
2021/04/16 05:40:33;;;;;;;25.62;18.07;;;;;;;10.49;80.52;100357.66;1830144;76;21558;-58
2021/04/16 05:43:39;;;;;;;27.22;18.52;;;;;;;10.49;80.35;100357.15;1828728;77;21916;-58
2021/04/16 05:46:45;;;;;;;24.65;16.52;;;;;;;10.58;80.42;100356.58;1829463;75;21912;-58
2021/04/16 05:49:52;;;;;;;28.62;18.37;;;;;;;10.69;80.22;100354.00;1819237;77;21740;-58
2021/04/16 05:53:02;;;;;;;29.02;17.82;;;;;;;10.71;79.96;100361.49;1823376;76;21378;-59
2021/04/16 05:56:06;;;;;;;29.05;17.73;;;;;;;10.70;79.86;100354.33;1814698;77;21331;-59
2021/04/16 05:59:11;;;;;;;28.73;17.50;;;;;;;10.69;79.84;100364.95;1814909;77;21836;-59
2021/04/16 06:02:41;;;;;;;22.90;16.15;;;;;;;10.68;79.80;100367.33;1766933;76;21421;-58
2021/04/16 06:05:48;;;;;;;25.12;16.35;;;;;;;10.65;79.73;100360.84;1794122;77;21351;-59
2021/04/16 06:08:55;;;;;;;23.38;15.18;;;;;;;10.66;79.78;100365.27;1760805;79;21245;-58
2021/04/16 06:12:02;;;;;;;19.57;14.18;;;;;;;10.70;79.76;100370.75;1819420;76;21190;-58
2021/04/16 06:15:11;;;;;;;20.10;13.93;;;;;;;10.63;79.67;100373.84;1812648;77;21193;-59
2021/04/16 06:18:17;;;;;;;23.52;15.68;;;;;;;10.58;79.88;100373.55;1813644;75;21319;-60
2021/04/16 06:21:24;;;;;;;25.35;17.57;;;;;;;10.49;80.13;100377.67;1824181;77;21346;-60
2021/04/16 06:24:30;;;;;;;28.52;19.55;;;;;;;10.40;80.27;100377.87;1827416;77;21366;-61
2021/04/16 06:27:39;;;;;;;30.50;19.92;;;;;;;10.33;80.50;100384.55;1823660;77;21217;-58
2021/04/16 06:30:45;;;;;;;34.40;21.90;;;;;;;10.23;80.79;100383.88;1828851;77;21390;-58
2021/04/16 06:33:51;;;;;;;34.90;22.22;;;;;;;10.15;81.02;100381.15;1823029;76;21276;-58
2021/04/16 06:36:57;;;;;;;34.83;22.93;;;;;;;10.06;81.31;100386.27;1763277;78;21218;-57
2021/04/16 06:40:04;;;;;;;35.23;23.52;;;;;;;10.01;81.66;100380.45;1821088;75;21343;-58
2021/04/16 06:43:14;;;;;;;35.68;23.52;;;;;;;10.04;81.83;100391.55;1767138;78;21409;-58
2021/04/16 06:46:24;;;;;;;32.25;23.10;;;;;;;10.07;81.85;100389.36;1823034;76;21700;-58
2021/04/16 06:49:35;;;;;;;33.15;20.75;;;;;;;10.22;82.04;100396.36;1836810;76;21454;-57
2021/04/16 06:52:48;;;;;;;27.40;19.42;;;;;;;10.38;81.85;100389.50;1849061;76;21824;-58
2021/04/16 06:56:05;;;;;;;24.65;17.80;;;;;;;10.55;81.48;100400.23;1840111;76;21811;-57
2021/04/16 06:59:27;;;;;;;25.97;17.55;;;;;;;10.64;80.95;100398.30;1842661;75;21323;-56
2021/04/16 07:02:40;;;;;;;22.32;17.00;;;;;;;10.64;80.24;100395.56;1843946;76;21379;-58
2021/04/16 07:05:52;;;;;;;26.12;17.32;;;;;;;10.67;79.87;100404.83;1850165;76;21917;-57
2021/04/16 07:09:21;;;;;;;25.45;18.52;;;;;;;10.74;79.67;100404.95;1844719;76;21381;-56
2021/04/16 07:12:29;;;;;;;27.58;19.77;;;;;;;10.69;79.63;100400.54;1840473;76;21178;-56
2021/04/16 07:15:50;;;;;;;28.32;19.42;;;;;;;10.58;79.70;100409.95;1833022;77;21385;-59
2021/04/16 07:19:00;;;;;;;29.35;19.45;;;;;;;10.54;79.89;100411.36;1840937;76;22037;-57
2021/04/16 07:22:09;;;;;;;29.25;19.10;;;;;;;10.53;79.74;100415.97;1830431;75;21429;-58
2021/04/16 07:25:52;;;;;;;27.80;19.37;;;;;;;10.51;79.64;100410.34;1837565;77;21348;-58
2021/04/16 07:29:02;;;;;;;30.15;20.52;;;;;;;10.54;79.59;100412.19;1838774;75;21382;-58
2021/04/16 07:32:10;;;;;;;27.25;19.35;;;;;;;10.51;79.13;100423.48;1825478;77;21849;-59
2021/04/16 07:35:31;;;;;;;29.25;19.80;;;;;;;10.49;79.09;100417.36;1833082;77;21430;-57
2021/04/16 07:38:39;;;;;;;25.25;17.90;;;;;;;10.56;78.99;100425.19;1834578;75;21212;-58
2021/04/16 07:41:59;;;;;;;23.87;18.27;;;;;;;10.77;79.24;100422.38;1822044;76;21352;-59
2021/04/16 07:45:21;;;;;;;26.93;17.90;;;;;;;10.90;78.46;100425.42;1830561;75;21250;-58
2021/04/16 07:48:36;;;;;;;24.43;16.65;;;;;;;10.94;78.10;100418.58;1824558;77;21394;-57
2021/04/16 07:51:41;;;;;;;21.48;15.88;;;;;;;11.04;77.62;100420.58;1823158;77;21927;-58
2021/04/16 07:54:47;;;;;;;24.45;17.45;;;;;;;11.05;76.57;100416.83;1828483;77;21354;-57
2021/04/16 07:58:26;;;;;;;24.65;18.40;;;;;;;10.95;75.79;100433.97;1822287;76;21342;-58
2021/04/16 08:01:38;;;;;;;25.55;19.75;;;;;;;10.87;75.83;100435.37;1831855;76;21410;-57
2021/04/16 08:04:44;;;;;;;25.65;19.45;;;;;;;10.77;75.56;100434.20;1837939;76;21180;-57
2021/04/16 08:07:51;;;;;;;26.48;19.95;;;;;;;10.70;75.56;100429.61;1823760;76;21338;-58
2021/04/16 08:11:02;;;;;;;29.82;22.15;;;;;;;10.53;76.05;100432.39;1845533;76;22055;-61
2021/04/16 08:14:14;;;;;;;31.48;22.35;;;;;;;10.43;76.71;100435.81;1835966;76;21843;-58
2021/04/16 08:17:38;;;;;;;29.25;21.62;;;;;;;10.44;77.12;100433.95;1851692;76;21429;-58
2021/04/16 08:21:26;;;;;;;30.12;21.17;;;;;;;10.50;77.35;100435.47;1828810;76;21350;-58
2021/04/16 08:24:56;;;;;;;27.67;20.17;;;;;;;10.64;77.43;100431.16;1838627;75;21388;-58
2021/04/16 08:28:07;;;;;;;29.35;20.92;;;;;;;10.82;77.17;100432.30;1828880;76;21303;-58
2021/04/16 08:31:16;;;;;;;26.48;20.30;;;;;;;10.98;77.14;100440.47;1785209;76;21334;-58
2021/04/16 08:34:25;;;;;;;26.17;19.95;;;;;;;11.12;76.45;100435.61;1830539;76;21173;-58
2021/04/16 08:37:35;;;;;;;30.08;20.60;;;;;;;11.11;75.87;100439.39;1844419;76;21395;-58
2021/04/16 08:40:51;;;;;;;24.45;18.30;;;;;;;11.18;75.54;100436.29;1806538;76;21418;-58
2021/04/16 08:44:02;;;;;;;22.27;16.62;;;;;;;11.46;75.55;100435.62;1815466;77;21339;-57
2021/04/16 08:47:09;;;;;;;24.70;17.10;;;;;;;11.76;74.26;100436.66;1839821;75;21188;-56
2021/04/16 08:50:16;;;;;;;21.12;15.58;;;;;;;12.05;73.51;100434.02;1825574;77;21720;-58
2021/04/16 08:53:22;;;;;;;21.15;16.25;;;;;;;12.20;72.96;100437.67;1847578;76;21322;-58
2021/04/16 08:56:34;;;;;;;18.87;14.50;;;;;;;12.22;73.01;100435.60;1826800;76;21906;-57
2021/04/16 08:59:44;;;;;;;18.23;14.47;;;;;;;12.17;72.61;100434.44;1831717;76;21337;-57
2021/04/16 09:03:03;;;;;;;16.73;13.53;;;;;;;12.14;72.74;100429.32;1835624;76;21338;-57
2021/04/16 09:06:10;;;;;;;19.23;14.70;;;;;;;12.16;72.95;100432.23;1816381;76;21829;-58
2021/04/16 09:09:21;;;;;;;16.93;14.25;;;;;;;12.19;72.44;100432.38;1837143;76;21192;-57
2021/04/16 09:12:50;;;;;;;17.40;14.58;;;;;;;12.21;71.38;100429.76;1859081;76;21234;-56
2021/04/16 09:15:56;;;;;;;18.23;14.05;;;;;;;12.16;71.06;100443.72;1867719;76;21243;-58
2021/04/16 09:19:07;;;;;;;16.45;13.35;;;;;;;12.07;70.82;100442.92;1854370;76;21385;-58
2021/04/16 09:22:18;;;;;;;18.77;14.15;;;;;;;11.92;70.29;100441.48;1824484;76;21260;-56
2021/04/16 09:25:46;;;;;;;16.02;13.05;;;;;;;11.84;70.31;100447.57;1835814;76;21813;-57
2021/04/16 09:29:00;;;;;;;16.82;13.78;;;;;;;11.81;70.65;100452.05;1817203;76;21220;-56
2021/04/16 09:32:11;;;;;;;16.10;12.55;;;;;;;11.67;71.57;100447.36;1814010;76;21231;-57
2021/04/16 09:35:36;;;;;;;17.15;11.18;;;;;;;11.55;72.37;100451.49;1843704;76;21738;-59
2021/04/16 09:38:51;;;;;;;13.50;10.28;;;;;;;11.36;72.69;100458.28;1815602;76;21211;-56
2021/04/16 09:41:57;;;;;;;13.93;10.20;;;;;;;11.19;73.07;100459.91;1809821;76;21800;-58
2021/04/16 09:45:04;;;;;;;16.10;11.93;;;;;;;11.13;73.89;100456.52;1802282;77;21236;-59
2021/04/16 09:48:17;;;;;;;16.50;12.18;;;;;;;11.07;74.29;100455.86;1805980;77;21256;-57
2021/04/16 09:51:28;;;;;;;17.65;12.75;;;;;;;11.04;74.62;100454.81;1811241;77;21856;-57
2021/04/16 09:54:45;;;;;;;16.55;12.85;;;;;;;11.04;74.83;100458.42;1805857;77;21430;-58
2021/04/16 09:57:51;;;;;;;16.87;12.05;;;;;;;11.03;75.18;100461.34;1823699;76;21216;-57
2021/04/16 10:01:08;;;;;;;18.73;13.55;;;;;;;10.95;75.69;100466.34;1848815;75;21510;-57
2021/04/16 10:04:19;;;;;;;25.00;15.55;;;;;;;10.85;75.89;100467.55;1846436;75;21225;-57
2021/04/16 10:07:31;;;;;;;22.30;16.00;;;;;;;10.58;76.45;100472.92;1813537;76;21733;-57
2021/04/16 10:10:45;;;;;;;22.80;15.45;;;;;;;10.47;77.29;100471.91;1816310;76;21181;-57
2021/04/16 10:13:53;;;;;;;20.70;15.20;;;;;;;10.44;77.75;100465.41;1821250;76;21245;-59
2021/04/16 10:17:14;;;;;;;22.65;16.30;;;;;;;10.39;78.18;100474.66;1822910;77;21307;-60
2021/04/16 10:20:24;;;;;;;19.48;15.00;;;;;;;10.38;78.65;100474.33;1794449;76;21702;-60
2021/04/16 10:23:51;;;;;;;20.65;14.83;;;;;;;10.37;78.71;100469.86;1814025;76;21298;-59
2021/04/16 10:52:33;;;;;;;29.10;19.70;;;;;;;10.25;81.45;100504.08;1868530;75;21338;-59
2021/04/16 11:45:23;;;;;;;12.25;10.00;;;;;;;10.38;78.53;100529.05;1823529;77;21297;-58
2021/04/16 12:40:15;;;;;;;5.42;3.10;;;;;;;11.31;73.32;100532.46;1839260;75;21393;-61
2021/04/16 12:43:31;;;;;;;3.12;2.45;;;;;;;11.47;72.68;100537.38;1833542;76;21368;-59
2021/04/16 12:46:45;;;;;;;5.03;3.47;;;;;;;11.63;71.99;100532.37;1818874;77;21764;-60
2021/04/16 12:49:51;;;;;;;11.10;6.42;;;;;;;11.76;71.53;100528.03;1797784;76;21530;-62
2021/04/16 12:52:58;;;;;;;4.20;3.10;;;;;;;11.93;70.78;100521.91;1827959;76;21362;-60
2021/04/16 12:56:12;;;;;;;3.60;2.70;;;;;;;12.07;70.24;100522.50;1851059;75;21741;-61
2021/04/16 12:59:24;;;;;;;5.03;3.35;;;;;;;12.20;68.48;100526.87;1798697;78;21203;-60
2021/04/16 13:02:37;;;;;;;3.45;2.62;;;;;;;12.26;67.33;100520.64;1860652;76;21338;-60
2021/04/16 13:05:44;;;;;;;5.33;2.83;;;;;;;12.39;66.80;100520.89;1854068;74;21915;-60
2021/04/16 13:08:50;;;;;;;3.15;2.45;;;;;;;12.50;66.20;100519.08;1815514;77;21369;-62
2021/04/16 13:11:57;;;;;;;3.50;2.77;;;;;;;12.61;65.53;100520.00;1824517;76;21220;-60
2021/04/16 13:15:02;;;;;;;4.85;3.00;;;;;;;12.60;64.80;100521.05;1821993;76;21262;-61
2021/04/16 13:18:12;;;;;;;3.83;3.12;;;;;;;12.58;64.84;100515.39;1829821;77;21411;-60
2021/04/16 13:21:25;;;;;;;4.05;3.05;;;;;;;12.53;64.72;100506.86;1830408;77;21800;-61
2021/04/16 13:24:30;;;;;;;4.58;3.42;;;;;;;12.45;65.03;100517.40;1766533;79;21800;-61
2021/04/16 13:27:37;;;;;;;4.72;2.92;;;;;;;12.49;65.17;100517.38;1826682;77;21350;-60
2021/04/16 13:30:42;;;;;;;4.58;3.00;;;;;;;12.53;65.14;100513.72;1831236;77;21847;-60
2021/04/16 13:33:51;;;;;;;5.05;3.37;;;;;;;12.54;65.15;100512.70;1776108;79;21389;-59
2021/04/16 13:36:59;;;;;;;5.00;3.70;;;;;;;12.58;64.84;100516.27;1832554;77;21417;-60
2021/04/16 13:40:06;;;;;;;2.80;2.25;;;;;;;12.69;65.11;100518.56;1770613;79;21764;-60
2021/04/16 13:43:15;;;;;;;4.53;2.62;;;;;;;12.80;64.41;100519.98;1811852;77;21401;-62
2021/04/16 13:46:28;;;;;;;3.87;2.90;;;;;;;12.81;63.16;100523.92;1818068;77;21890;-61
2021/04/16 13:49:33;;;;;;;;;;;;;;;12.89;63.06;100520.27;1826485;77;21188;-62
2021/04/16 13:52:39;;;;;;;3.37;2.15;;;;;;;13.09;62.33;100522.82;1827811;77;20313;-61
2021/04/16 13:55:45;;;;;;;3.05;2.08;;;;;;;13.22;61.32;100519.73;1824978;77;21394;-61
2021/04/16 13:58:51;;;;;;;3.85;2.08;;;;;;;13.31;59.64;100524.11;1816929;78;21319;-60
2021/04/16 14:01:56;;;;;;;4.10;2.10;;;;;;;13.20;58.72;100519.59;1827790;77;21338;-60
2021/04/16 14:05:05;;;;;;;4.72;2.00;;;;;;;13.13;59.03;100529.13;1824427;77;21709;-60
2021/04/16 14:08:16;;;;;;;2.45;1.87;;;;;;;13.26;59.05;100529.83;1825740;76;21935;-59
2021/04/16 14:11:22;;;;;;;2.47;1.87;;;;;;;13.49;58.60;100520.43;1849403;76;21327;-61
2021/04/16 14:14:31;;;;;;;5.03;2.00;;;;;;;13.50;57.62;100529.03;1851537;76;21322;-60
2021/04/16 14:17:47;;;;;;;3.85;2.40;;;;;;;13.36;57.21;100528.52;1824393;76;21234;-60
2021/04/16 14:20:57;;;;;;;2.42;2.00;;;;;;;13.23;57.67;100533.83;1832025;76;21691;-60
2021/04/16 14:24:05;;;;;;;6.15;2.87;;;;;;;13.20;58.50;100526.47;1828487;76;21268;-60
2021/04/16 14:27:11;;;;;;;6.37;4.33;;;;;;;13.24;58.73;100523.15;1823676;76;21213;-60
2021/04/16 14:30:31;;;;;;;5.40;3.30;;;;;;;13.32;58.24;100520.81;1829858;76;21863;-59
2021/04/16 14:33:41;;;;;;;2.20;1.95;;;;;;;13.46;57.95;100524.11;1833053;76;21224;-61
2021/04/16 14:36:48;;;;;;;4.97;3.52;;;;;;;13.67;57.92;100523.33;1843188;75;21373;-61
2021/04/16 14:39:55;;;;;;;4.05;2.92;;;;;;;13.78;57.54;100515.41;1848443;76;21341;-61
2021/04/16 14:43:01;;;;;;;3.80;1.80;;;;;;;13.80;57.16;100517.96;1838026;75;21343;-61
2021/04/16 14:46:10;;;;;;;2.90;2.15;;;;;;;13.73;56.84;100523.92;1842385;76;21889;-61
2021/04/16 14:49:19;;;;;;;5.58;4.42;;;;;;;13.56;57.05;100518.31;1852587;75;21363;-61
2021/04/16 14:52:25;;;;;;;21.95;14.90;;;;;;;13.46;57.08;100517.23;1837670;74;21664;-62
2021/04/16 14:55:38;;;;;;;3.17;2.40;;;;;;;13.42;57.19;100522.25;1828743;76;21259;-60
2021/04/16 14:58:53;;;;;;;3.42;2.47;;;;;;;13.43;57.42;100521.20;1830259;76;21252;-60
2021/04/16 15:01:59;;;;;;;4.35;3.08;;;;;;;13.54;57.29;100522.09;1829437;76;21175;-60
2021/04/16 15:05:06;;;;;;;3.58;2.58;;;;;;;14.23;56.78;100522.48;1831048;76;21199;-62
2021/04/16 15:08:20;;;;;;;2.85;2.35;;;;;;;14.53;55.86;100521.34;1825553;77;21266;-62
2021/04/16 15:11:27;;;;;;;2.98;2.37;;;;;;;14.77;54.94;100520.92;1814288;76;21357;-61
2021/04/16 15:14:36;;;;;;;6.47;2.70;;;;;;;14.90;53.71;100515.52;1835219;75;22029;-62
2021/04/16 15:17:42;;;;;;;4.67;2.70;;;;;;;14.88;53.37;100518.99;1862109;76;21358;-60
2021/04/16 15:20:50;;;;;;;5.15;3.02;;;;;;;14.90;53.16;100514.14;1800363;77;21710;-60
2021/04/16 15:23:57;;;;;;;3.40;2.15;;;;;;;14.80;53.52;100516.38;1859321;75;21749;-60
2021/04/16 15:27:04;;;;;;;4.67;2.77;;;;;;;14.47;53.41;100527.64;1799157;77;21414;-61
2021/04/16 15:30:12;;;;;;;8.15;2.90;;;;;;;14.05;53.73;100528.98;1800646;77;21228;-61
2021/04/16 15:47:08;;;;;;;6.80;3.12;;;;;;;15.36;51.48;100526.34;1785230;77;21375;-61
2021/04/16 15:50:19;;;;;;;2.77;2.12;;;;;;;14.81;52.22;100530.48;1820436;76;21184;-60
2021/04/16 15:53:26;;;;;;;2.20;1.80;;;;;;;14.36;53.37;100530.92;1770458;78;21226;-60
2021/04/16 15:56:44;;;;;;;3.27;2.22;;;;;;;14.00;54.15;100537.79;1830381;76;21382;-59
2021/04/16 15:59:52;;;;;;;2.62;2.12;;;;;;;13.69;54.47;100534.97;1834729;77;21397;-61
2021/04/16 16:02:57;;;;;;;3.58;2.22;;;;;;;13.40;55.10;100542.21;1827588;76;21208;-60
2021/04/16 16:06:03;;;;;;;3.85;2.30;;;;;;;13.20;55.86;100534.72;1830678;76;21319;-59
2021/04/16 16:09:11;;;;;;;2.70;1.98;;;;;;;13.03;56.30;100534.57;1805250;77;21398;-62
2021/04/16 16:12:24;;;;;;;3.50;1.98;;;;;;;12.86;56.76;100529.71;1838946;76;21215;-62
2021/04/16 16:15:38;;;;;;;5.13;2.70;;;;;;;12.72;57.21;100525.56;1826297;76;21221;-62
2021/04/16 16:18:46;;;;;;;2.75;2.20;;;;;;;12.53;57.63;100537.92;1831095;76;21342;-61
2021/04/16 16:21:54;;;;;;;5.55;2.27;;;;;;;12.34;58.04;100538.42;1827221;76;21366;-61
2021/04/16 16:25:02;;;;;;;5.55;3.08;;;;;;;12.14;58.19;100542.70;1814609;77;21832;-60
2021/04/16 16:28:28;;;;;;;5.28;3.67;;;;;;;11.98;58.40;100549.16;1812592;76;21350;-60
2021/04/16 16:31:38;;;;;;;3.65;3.20;;;;;;;11.81;58.47;100546.14;1710641;80;21289;-60
2021/04/16 16:34:44;;;;;;;8.38;4.83;;;;;;;11.67;58.76;100547.44;1701096;81;21254;-59
2021/04/16 16:37:54;;;;;;;7.22;4.62;;;;;;;11.52;59.03;100542.33;1688078;80;21311;-62
2021/04/16 16:40:59;;;;;;;5.92;3.72;;;;;;;11.34;59.39;100553.53;1738273;80;21568;-60
2021/04/16 16:44:05;;;;;;;5.87;3.10;;;;;;;11.19;60.01;100559.92;1694860;82;21320;-61
2021/04/16 16:47:16;;;;;;;8.93;3.30;;;;;;;11.05;60.57;100571.06;1689165;81;21303;-62
2021/04/16 16:50:25;;;;;;;5.37;3.67;;;;;;;10.91;61.26;100570.94;1752767;80;21810;-60
2021/04/16 16:53:30;;;;;;;5.28;3.67;;;;;;;10.80;61.92;100579.52;1689231;83;21380;-59